Time;durP1;ratioP1;P1;durP2;ratioP2;P2;SDS_P1;SDS_P2;PMS_P1;PMS_P2;Temp;Humidity;BMP_temperature;BMP_pressure;BME280_temperature;BME280_humidity;BME280_pressure;Samples;Min_cycle;Max_cycle;Signal;HPM_P1;HPM_P2
2022/05/27 00:07:51;;;;;;;0.57;0.40;;;;;;;;;;20835093;28;20271;-70
2022/05/27 00:17:53;;;;;;;0.70;0.33;;;;;;;;;;20827801;28;20589;-70
2022/05/27 00:27:56;;;;;;;4.90;0.60;;;;;;;;;;20834607;28;20221;-71
2022/05/27 00:37:58;;;;;;;0.73;0.40;;;;;;;;;;20833501;28;20205;-70
2022/05/27 00:48:01;;;;;;;0.67;0.50;;;;;;;;;;20832657;28;20225;-70
2022/05/27 00:58:02;;;;;;;0.87;0.50;;;;;;;;;;20815129;28;20210;-70
2022/05/27 01:08:06;;;;;;;1.00;0.40;;;;;;;;;;20825637;28;20280;-70
2022/05/27 01:20:18;;;;;;;0.80;0.50;;;;;;;;;;20828102;28;20256;-71
2022/05/27 01:29:03;;;;;;;2.23;0.63;;;19.70;99.90;;;;;;20828745;28;20282;-70
2022/05/27 01:39:05;;;;;;;2.50;0.50;;;;;;;;;;20828368;28;20538;-70
2022/05/27 01:49:24;;;;;;;1.73;0.50;;;19.40;99.90;;;;;;20824551;28;20221;-70
2022/05/27 01:59:26;;;;;;;2.17;0.50;;;;;;;;;;20823227;28;20437;-71
2022/05/27 02:09:52;;;;;;;1.07;0.40;;;19.00;99.90;;;;;;20822110;28;20263;-70
2022/05/27 02:20:01;;;;;;;0.90;0.53;;;;;;;;;;20813697;28;20205;-70
2022/05/27 02:30:05;;;;;;;1.10;0.60;;;;;;;;;;20821004;28;20212;-70
2022/05/27 02:40:12;;;;;;;1.20;0.60;;;;;;;;;;20780270;22;1245903;-67
2022/05/27 02:50:20;;;;;;;1.50;0.80;;;;;;;;;;20678606;28;20244;-68
2022/05/27 03:00:27;;;;;;;1.03;0.60;;;18.90;99.90;;;;;;20708971;28;20286;-68
2022/05/27 03:10:51;;;;;;;1.20;0.70;;;18.80;99.90;;;;;;20690826;28;20286;-68
2022/05/27 03:21:03;;;;;;;2.17;0.70;;;;;;;;;;20628970;28;20208;-68
2022/05/27 03:31:26;;;;;;;1.53;0.77;;;18.80;99.90;;;;;;20690912;28;20232;-68
2022/05/27 03:41:38;;;;;;;2.20;1.00;;;;;;;;;;20707686;28;20232;-68
2022/05/27 03:52:06;;;;;;;1.50;1.00;;;;;;;;;;20692263;28;20301;-68
2022/05/27 04:02:09;;;;;;;3.37;1.27;;;;;;;;;;20691318;28;20615;-67
2022/05/27 04:12:11;;;;;;;1.93;0.93;;;;;;;;;;20690606;28;20696;-68
2022/05/27 04:22:14;;;;;;;2.43;0.93;;;;;;;;;;20690947;28;20222;-68
2022/05/27 04:32:17;;;;;;;1.30;0.80;;;;;;;;;;20700790;28;20273;-68
2022/05/27 04:42:19;;;;;;;1.30;0.90;;;;;;;;;;20720923;28;20275;-68
2022/05/27 04:52:26;;;;;;;1.93;1.00;;;;;;;;;;20731793;28;20238;-68
2022/05/27 05:02:28;;;;;;;1.80;1.30;;;;;;;;;;20719325;28;20212;-68
2022/05/27 05:12:30;;;;;;;2.07;0.90;;;;;;;;;;20734382;28;20335;-68
2022/05/27 05:22:32;;;;;;;5.00;1.30;;;18.70;99.90;;;;;;20718503;28;20262;-68
2022/05/27 05:32:35;;;;;;;1.30;0.80;;;;;;;;;;20716449;28;20235;-70
2022/05/27 05:42:37;;;;;;;2.05;0.95;;;18.60;99.90;;;;;;20716547;28;20286;-64
2022/05/27 05:52:39;;;;;;;2.03;1.00;;;18.90;99.90;;;;;;20698882;28;20273;-65
2022/05/27 06:02:41;;;;;;;2.47;0.80;;;;;;;;;;20715625;28;20212;-68
2022/05/27 06:12:43;;;;;;;1.20;0.70;;;;;;;;;;20730026;28;20234;-68
2022/05/27 06:22:44;;;;;;;0.80;0.60;;;;;;;;;;20705488;28;20702;-68
2022/05/27 06:43:07;;;;;;;0.97;0.60;;;;;;;;;;20690151;28;20232;-69
2022/05/27 06:53:09;;;;;;;1.23;0.80;;;;;;;;;;20711551;28;20221;-69
2022/05/27 07:03:11;;;;;;;2.83;0.83;;;;;;;;;;20698786;28;20976;-69
2022/05/27 07:13:13;;;;;;;1.40;0.80;;;18.90;99.90;;;;;;20700200;28;20691;-69
2022/05/27 07:23:17;;;;;;;0.80;0.60;;;;;;;;;;20699223;28;20220;-70
2022/05/27 07:33:20;;;;;;;0.87;0.33;;;18.90;99.90;;;;;;20723390;28;20232;-69
2022/05/27 07:43:22;;;;;;;2.80;0.57;;;;;;;;;;20671175;28;20558;-69
2022/05/27 07:53:24;;;;;;;1.10;0.50;;;;;;;;;;20682281;28;20757;-69
2022/05/27 08:03:27;;;;;;;2.40;0.60;;;;;;;;;;20713403;28;20281;-69
2022/05/27 08:13:30;;;;;;;1.30;0.67;;;;;;;;;;20713066;28;20231;-69
2022/05/27 08:23:32;;;;;;;1.30;0.53;;;;;;;;;;20710502;28;20290;-69
2022/05/27 08:44:16;;;;;;;1.20;0.77;;;19.20;99.90;;;;;;20729465;28;20220;-69
2022/05/27 08:54:26;;;;;;;3.33;1.00;;;19.30;99.90;;;;;;20752977;22;20254;-71
2022/05/27 09:04:42;;;;;;;0.90;0.50;;;19.30;99.90;;;;;;20808533;28;20888;-69
2022/05/27 09:14:53;;;;;;;1.23;0.50;;;;;;;;;;20821399;28;20239;-71
2022/05/27 09:24:56;;;;;;;0.70;0.40;;;;;;;;;;20793177;28;20664;-71
2022/05/27 09:35:02;;;;;;;2.40;0.30;;;;;;;;;;20818232;28;20208;-71
2022/05/27 09:45:04;;;;;;;0.97;0.40;;;;;;;;;;20786462;28;20228;-71
2022/05/27 09:55:20;;;;;;;0.40;0.40;;;;;;;;;;20818646;28;20220;-71
2022/05/27 10:05:28;;;;;;;0.73;0.47;;;20.30;99.90;;;;;;20821784;28;20233;-72
2022/05/27 10:15:33;;;;;;;0.30;0.30;;;;;;;;;;20781984;28;20833;-73
2022/05/27 10:25:43;;;;;;;4.00;0.57;;;;;;;;;;20798117;28;20225;-72
2022/05/27 10:35:46;;;;;;;0.40;0.30;;;;;;;;;;20814468;28;20244;-72
2022/05/27 10:45:52;;;;;;;0.83;0.23;;;20.70;99.90;;;;;;20821982;28;20267;-72
2022/05/27 10:55:57;;;;;;;1.03;0.30;;;;;;;;;;20821682;28;20231;-72
2022/05/27 11:06:01;;;;;;;0.30;0.20;;;;;;;;;;20822243;28;20256;-72
2022/05/27 11:16:18;;;;;;;1.53;0.40;;;;;;;;;;20822406;28;20206;-72
2022/05/27 11:26:26;;;;;;;0.43;0.30;;;;;;;;;;20820672;28;20295;-72
2022/05/27 11:36:28;;;;;;;0.93;0.37;;;;;;;;;;20821337;28;20574;-72
2022/05/27 11:46:53;;;;;;;0.87;0.40;;;21.20;99.90;;;;;;20818455;28;20226;-72
2022/05/27 11:56:55;;;;;;;3.53;0.50;;;;;;;;;;20819571;28;20244;-72
2022/05/27 12:07:00;;;;;;;0.57;0.35;;;;;;;;;;20818926;28;20215;-73
2022/05/27 12:17:03;;;;;;;4.30;0.57;;;;;;;;;;20819261;28;20668;-72
2022/05/27 12:27:06;;;;;;;2.45;0.40;;;;;;;;;;20818992;28;20706;-72
2022/05/27 12:37:15;;;;;;;2.47;0.60;;;;;;;;;;20819218;28;20598;-72
2022/05/27 12:47:42;;;;;;;1.52;0.50;;;;;;;;;;20817166;28;20226;-73
2022/05/27 13:08:18;;;;;;;1.67;0.60;;;;;;;;;;20831954;28;20214;-72
2022/05/27 13:18:34;;;;;;;4.50;0.50;;;22.40;99.70;;;;;;20832108;28;20279;-73
2022/05/27 13:28:46;;;;;;;0.40;0.40;;;22.60;99.90;;;;;;20829317;28;20213;-72
2022/05/27 13:38:54;;;;;;;0.68;0.55;;;;;;;;;;20829365;28;20248;-72
2022/05/27 13:48:59;;;;;;;0.60;0.32;;;;;;;;;;20828123;28;20271;-73
2022/05/27 13:59:02;;;;;;;0.30;0.30;;;;;;;;;;20827159;28;20222;-73
2022/05/27 14:09:26;;;;;;;0.65;0.40;;;23.30;99.90;;;;;;20825052;28;20267;-73
2022/05/27 14:19:28;;;;;;;0.75;0.30;;;;;;;;;;20826448;28;20586;-73
2022/05/27 14:29:30;;;;;;;0.47;0.30;;;;;;;;;;20825371;28;20223;-73
2022/05/27 14:39:32;;;;;;;1.00;0.32;;;;;;;;;;20824637;28;20277;-72
2022/05/27 14:49:41;;;;;;;0.30;0.30;;;;;;;;;;20854911;23;20242;-72
2022/05/27 14:59:52;;;;;;;0.60;0.30;;;;;;;;;;20905151;28;20216;-71
2022/05/27 15:09:58;;;;;;;0.40;0.38;;;;;;;;;;20905315;28;20638;-71
2022/05/27 15:20:06;;;;;;;0.68;0.43;;;;;;;;;;20904170;28;20229;-71
2022/05/27 15:40:40;;;;;;;0.52;0.40;;;;;;;;;;20903974;28;20625;-71
2022/05/27 15:50:45;;;;;;;0.40;0.30;;;23.80;99.90;;;;;;20885268;28;20217;-71
2022/05/27 16:00:47;;;;;;;0.22;0.22;;;;;;;;;;20902451;28;20608;-71
2022/05/27 16:10:49;;;;;;;0.50;0.30;;;;;;;;;;20901852;28;20258;-71
2022/05/27 16:20:50;;;;;;;1.42;0.68;;;;;;;;;;20901939;28;20209;-71
2022/05/27 16:30:52;;;;;;;0.52;0.30;;;;;;;;;;20906879;28;20220;-71
2022/05/27 16:40:54;;;;;;;1.00;0.30;;;;;;;;;;20897878;28;20204;-71
2022/05/27 16:50:56;;;;;;;0.60;0.40;;;;;;;;;;20895761;28;20279;-73
2022/05/27 17:00:58;;;;;;;0.70;0.38;;;;;;;;;;20891978;28;20615;-72
2022/05/27 17:11:00;;;;;;;1.08;0.60;;;;;;;;;;20913112;28;20578;-72
2022/05/27 17:21:02;;;;;;;0.38;0.30;;;22.50;95.10;;;;;;20905060;28;20268;-72
2022/05/27 17:31:06;;;;;;;2.60;0.40;;;22.50;97.60;;;;;;20898954;28;20273;-72
2022/05/27 17:41:09;;;;;;;1.38;0.43;;;;;;;;;;20909289;28;20211;-72
2022/05/27 17:51:20;;;;;;;0.70;0.50;;;;;;;;;;20874991;28;20288;-71
2022/05/27 18:01:24;;;;;;;0.60;0.40;;;;;;;;;;20904525;28;20208;-71
2022/05/27 18:11:26;;;;;;;0.70;0.40;;;;;;;;;;20907650;28;20584;-71
2022/05/27 18:21:28;;;;;;;0.65;0.40;;;;;;;;;;20908793;28;20269;-72
2022/05/27 18:31:30;;;;;;;1.85;0.30;;;;;;;;;;20903778;28;20261;-71
2022/05/27 18:41:32;;;;;;;0.20;0.20;;;;;;;;;;20905377;28;20286;-72
2022/05/27 18:51:35;;;;;;;1.70;0.40;;;;;;;;;;20895795;28;20281;-73
2022/05/27 19:01:37;;;;;;;0.43;0.32;;;;;;;;;;20895649;28;20206;-73
2022/05/27 19:11:41;;;;;;;0.30;0.30;;;;;;;;;;20889565;28;20584;-73
2022/05/27 19:21:42;;;;;;;1.13;0.30;;;;;;;;;;20872622;28;20702;-73
2022/05/27 19:31:44;;;;;;;0.40;0.30;;;;;;;;;;20897803;28;20233;-73
2022/05/27 19:41:47;;;;;;;0.60;0.40;;;;;;;;;;20899284;28;20693;-73
2022/05/27 19:51:52;;;;;;;0.73;0.40;;;21.20;99.90;;;;;;20900884;28;20227;-74
2022/05/27 20:12:16;;;;;;;0.83;0.40;;;;;;;;;;20917819;28;20277;-72
2022/05/27 20:22:19;;;;;;;0.60;0.40;;;;;;;;;;20918212;28;20208;-71
2022/05/27 20:32:21;;;;;;;0.93;0.40;;;;;;;;;;20917546;28;20686;-71
2022/05/27 20:42:24;;;;;;;1.33;0.30;;;;;;;;;;20897732;28;20224;-72
2022/05/27 20:52:26;;;;;;;1.00;0.53;;;;;;;;;;20918263;22;20305;-73
2022/05/27 21:02:28;;;;;;;1.70;0.40;;;;;;;;;;20912808;28;20219;-73
2022/05/27 21:12:29;;;;;;;1.00;0.50;;;;;;;;;;20941790;28;20229;-73
2022/05/27 21:22:31;;;;;;;0.97;0.40;;;;;;;;;;20963701;28;20282;-73
2022/05/27 21:32:34;;;;;;;1.43;0.70;;;;;;;;;;20962551;28;20232;-73
2022/05/27 21:42:36;;;;;;;3.70;1.10;;;;;;;;;;20940757;28;20224;-74
2022/05/27 21:52:38;;;;;;;2.70;0.60;;;;;;;;;;20957640;28;20293;-74
2022/05/27 22:02:40;;;;;;;2.70;0.57;;;;;;;;;;20965694;28;20240;-74
2022/05/27 22:12:42;;;;;;;1.50;0.60;;;;;;;;;;20943918;28;20225;-74
2022/05/27 22:22:44;;;;;;;2.20;0.70;;;;;;;;;;20942524;28;20841;-74
2022/05/27 22:32:46;;;;;;;3.60;0.87;;;;;;;;;;20875535;28;20587;-74
2022/05/27 22:42:49;;;;;;;3.20;1.00;;;;;;;;;;20859307;28;20220;-74
2022/05/27 22:52:51;;;;;;;2.47;0.50;;;;;;;;;;20892817;28;20227;-74
2022/05/27 23:02:52;;;;;;;1.97;0.43;;;;;;;;;;20947997;28;20592;-73
2022/05/27 23:23:15;;;;;;;1.50;0.60;;;;;;;;;;20956566;28;20277;-73
2022/05/27 23:33:17;;;;;;;2.93;0.60;;;;;;;;;;20875937;28;20217;-73
2022/05/27 23:43:21;;;;;;;3.43;0.50;;;;;;;;;;20886766;28;20212;-74
2022/05/27 23:53:23;;;;;;;2.80;0.90;;;;;;;;;;20885828;28;20252;-73
